createdAt,value
2023-04-08T00:01:23.062Z,8.60
2023-04-08T00:03:51.704Z,8.70
2023-04-08T00:06:21.789Z,8.90
2023-04-08T00:08:50.659Z,8.90
2023-04-08T00:11:19.273Z,8.90
2023-04-08T00:13:47.756Z,9.10
2023-04-08T00:16:16.348Z,9.10
2023-04-08T00:18:44.958Z,9.20
2023-04-08T00:21:14.605Z,9.30
2023-04-08T00:23:44.796Z,8.10
2023-04-08T00:26:13.504Z,9.40
2023-04-08T00:28:42.734Z,9.40
2023-04-08T00:31:11.920Z,9.50
2023-04-08T00:33:40.653Z,9.60
2023-04-08T00:36:09.414Z,9.70
2023-04-08T00:38:37.956Z,9.70
2023-04-08T00:41:07.862Z,9.70
2023-04-08T00:43:36.482Z,9.90
2023-04-08T00:46:06.477Z,9.90
2023-04-08T00:48:35.589Z,9.40
2023-04-08T00:51:05.845Z,10.10
2023-04-08T00:53:34.740Z,10.10
2023-04-08T00:56:03.524Z,10.10
2023-04-08T00:58:34.572Z,5.80
2023-04-08T01:01:12.243Z,10.10
2023-04-08T01:03:51.708Z,10.30
2023-04-08T01:06:32.302Z,9.80
2023-04-08T01:09:06.638Z,8.00
2023-04-08T01:11:39.702Z,10.10
2023-04-08T01:14:13.183Z,10.20
2023-04-08T01:16:45.230Z,10.20
2023-04-08T01:19:28.019Z,9.90
2023-04-08T01:22:04.820Z,10.10
2023-04-08T01:24:40.228Z,9.50
2023-04-08T01:27:13.064Z,10.30
2023-04-08T01:29:44.078Z,8.60
2023-04-08T01:32:13.951Z,10.40
2023-04-08T01:34:44.092Z,10.30
2023-04-08T01:37:14.722Z,10.20
2023-04-08T01:39:43.980Z,10.00
2023-04-08T01:42:15.365Z,9.70
2023-04-08T01:44:45.007Z,10.40
2023-04-08T01:47:16.167Z,10.40
2023-04-08T01:49:46.372Z,10.00
2023-04-08T01:52:17.766Z,10.50
2023-04-08T01:54:46.285Z,10.50
2023-04-08T01:57:24.352Z,10.40
2023-04-08T01:59:56.694Z,10.30
2023-04-08T02:02:28.347Z,10.20
2023-04-08T02:04:57.191Z,10.30
2023-04-08T02:07:25.817Z,10.50
2023-04-08T02:09:54.305Z,9.50
2023-04-08T02:12:24.523Z,9.20
2023-04-08T02:14:53.432Z,9.40
2023-04-08T02:17:32.371Z,10.40
2023-04-08T02:20:09.792Z,10.50
2023-04-08T02:22:45.461Z,9.50
2023-04-08T02:25:17.842Z,9.50
2023-04-08T02:27:49.079Z,10.60
2023-04-08T02:30:19.407Z,10.60
2023-04-08T02:32:49.992Z,10.40
2023-04-08T02:35:20.080Z,10.40
2023-04-08T02:37:49.142Z,10.50
2023-04-08T02:40:28.742Z,10.10
2023-04-08T02:43:00.316Z,10.60
2023-04-08T02:45:33.822Z,10.50
2023-04-08T02:48:02.969Z,10.70
2023-04-08T02:50:31.702Z,10.80
2023-04-08T02:53:00.305Z,10.70
2023-04-08T02:55:28.862Z,10.70
2023-04-08T02:57:58.789Z,10.60
2023-04-08T03:00:27.322Z,10.50
2023-04-08T03:02:56.151Z,10.50
2023-04-08T03:05:25.096Z,10.20
2023-04-08T03:07:53.804Z,10.40
2023-04-08T03:10:22.433Z,10.30
2023-04-08T03:12:51.108Z,9.30
2023-04-08T03:15:21.300Z,10.30
2023-04-08T03:17:49.909Z,10.10
2023-04-08T03:20:18.821Z,10.40
2023-04-08T03:22:47.288Z,8.60
2023-04-08T03:25:15.916Z,10.50
2023-04-08T03:27:44.428Z,10.60
2023-04-08T03:30:13.723Z,10.70
2023-04-08T03:32:44.026Z,10.80
2023-04-08T03:35:12.447Z,10.60
2023-04-08T03:37:40.922Z,10.70
2023-04-08T03:40:11.700Z,10.70
2023-04-08T03:42:40.288Z,9.10
2023-04-08T03:45:10.085Z,10.60
2023-04-08T03:47:38.646Z,10.70
2023-04-08T03:50:10.170Z,10.70
2023-04-08T03:52:38.736Z,10.70
2023-04-08T03:55:08.077Z,10.60
2023-04-08T03:57:36.660Z,10.60
2023-04-08T04:00:06.166Z,10.50
2023-04-08T04:02:34.694Z,10.50
2023-04-08T04:05:03.401Z,10.60
2023-04-08T04:07:33.311Z,10.50
2023-04-08T04:10:01.816Z,7.90
2023-04-08T04:12:30.496Z,10.50
2023-04-08T04:14:59.080Z,8.40
2023-04-08T04:17:27.724Z,10.60
2023-04-08T04:19:56.446Z,10.30
2023-04-08T04:22:25.014Z,10.50
2023-04-08T04:24:54.964Z,10.50
2023-04-08T04:27:23.514Z,9.60
2023-04-08T04:29:51.999Z,10.40
2023-04-08T04:32:21.027Z,10.50
2023-04-08T04:34:49.509Z,10.30
2023-04-08T04:37:18.422Z,10.20
2023-04-08T04:39:47.185Z,10.30
2023-04-08T04:42:17.170Z,10.40
2023-04-08T04:44:45.788Z,9.40
2023-04-08T04:47:14.327Z,10.30
2023-04-08T04:49:42.962Z,10.10
2023-04-08T04:52:11.543Z,9.90
2023-04-08T04:54:40.057Z,10.00
2023-04-08T04:57:08.554Z,8.20
2023-04-08T04:59:38.783Z,9.90
2023-04-08T05:02:07.393Z,10.10
2023-04-08T05:04:36.135Z,10.00
2023-04-08T05:07:04.628Z,9.90
2023-04-08T05:09:33.137Z,9.50
2023-04-08T05:12:01.701Z,8.40
2023-04-08T05:14:31.724Z,10.10
2023-04-08T05:17:01.681Z,10.30
2023-04-08T05:19:30.267Z,10.30
2023-04-08T05:21:58.813Z,10.30
2023-04-08T05:24:27.436Z,10.00
2023-04-08T05:26:57.864Z,10.20
2023-04-08T05:29:26.483Z,9.90
2023-04-08T05:31:56.461Z,10.00
2023-04-08T05:34:26.632Z,9.50
2023-04-08T05:36:55.164Z,9.80
2023-04-08T05:39:23.680Z,9.70
2023-04-08T05:41:52.251Z,9.70
2023-04-08T05:44:20.814Z,10.00
2023-04-08T05:46:49.456Z,8.80
2023-04-08T05:49:18.397Z,8.00
2023-04-08T05:51:48.349Z,10.10
2023-04-08T05:54:16.811Z,10.20
2023-04-08T05:56:46.489Z,9.80
2023-04-08T05:59:15.012Z,9.80
2023-04-08T06:01:43.577Z,8.90
2023-04-08T06:04:12.166Z,10.40
2023-04-08T06:06:40.661Z,10.40
2023-04-08T06:09:11.176Z,10.30
2023-04-08T06:11:39.737Z,10.30
2023-04-08T06:14:08.311Z,10.40
2023-04-08T06:16:36.809Z,9.20
2023-04-08T06:19:05.393Z,10.50
2023-04-08T06:21:33.856Z,9.90
2023-04-08T06:24:02.416Z,10.20
2023-04-08T06:26:33.501Z,10.80
2023-04-08T06:29:03.053Z,10.90
2023-04-08T06:31:32.119Z,11.00
2023-04-08T06:34:00.638Z,10.70
2023-04-08T06:36:29.603Z,10.90
2023-04-08T06:38:58.052Z,10.30
2023-04-08T06:41:26.541Z,10.40
2023-04-08T06:43:56.441Z,10.50
2023-04-08T06:46:25.041Z,10.90
2023-04-08T06:48:53.601Z,10.80
2023-04-08T06:51:22.209Z,10.90
2023-04-08T06:53:50.974Z,10.10
2023-04-08T06:56:21.429Z,10.60
2023-04-08T06:58:50.344Z,10.70
2023-04-08T07:01:20.790Z,10.90
2023-04-08T07:03:49.444Z,11.00
2023-04-08T07:06:18.085Z,11.10
2023-04-08T07:08:46.692Z,10.10
2023-04-08T07:11:15.177Z,11.10
2023-04-08T07:13:43.767Z,11.10
2023-04-08T07:16:12.347Z,11.20
2023-04-08T07:18:42.634Z,11.10
2023-04-08T07:21:11.728Z,10.70
2023-04-08T07:23:40.436Z,10.90
2023-04-08T07:26:09.523Z,11.10
2023-04-08T07:28:38.034Z,11.10
2023-04-08T07:31:15.157Z,11.00
2023-04-08T07:33:46.129Z,9.70
2023-04-08T07:36:15.636Z,11.00
2023-04-08T07:38:44.573Z,11.00
2023-04-08T07:41:13.002Z,9.50
2023-04-08T07:43:42.097Z,9.70
2023-04-08T07:46:10.715Z,10.10
2023-04-08T07:48:39.257Z,11.40
2023-04-08T07:51:11.325Z,11.40
2023-04-08T07:53:41.587Z,9.40
2023-04-08T07:56:14.989Z,11.60
2023-04-08T07:58:44.112Z,11.40
2023-04-08T08:01:21.289Z,11.90
2023-04-08T08:03:50.132Z,10.80
2023-04-08T08:06:20.970Z,9.60
2023-04-08T08:08:49.632Z,11.20
2023-04-08T08:11:18.235Z,11.80
2023-04-08T08:13:47.035Z,12.20
2023-04-08T08:16:15.638Z,12.20
2023-04-08T08:18:44.247Z,12.20
2023-04-08T08:21:12.669Z,12.00
2023-04-08T08:23:42.695Z,12.30
2023-04-08T08:26:12.009Z,10.70
2023-04-08T08:28:40.876Z,12.30
2023-04-08T08:31:09.382Z,11.70
2023-04-08T08:33:37.971Z,11.20
2023-04-08T08:36:07.472Z,12.50
2023-04-08T08:38:36.076Z,12.50
2023-04-08T08:41:06.580Z,12.40
2023-04-08T08:43:35.800Z,12.60
2023-04-08T08:46:04.479Z,12.70
2023-04-08T08:48:34.173Z,12.30
2023-04-08T08:51:03.448Z,12.70
2023-04-08T08:53:35.770Z,12.80
2023-04-08T08:58:42.771Z,12.70
2023-04-08T09:01:38.603Z,12.70
2023-04-08T09:04:16.730Z,12.80
2023-04-08T09:06:46.793Z,12.30
2023-04-08T09:09:16.044Z,12.70
2023-04-08T09:11:48.384Z,11.90
2023-04-08T09:14:25.706Z,12.90
2023-04-08T09:16:55.037Z,12.70
2023-04-08T09:19:23.679Z,12.50
2023-04-08T09:22:08.162Z,12.70
2023-04-08T09:24:38.199Z,12.50
2023-04-08T09:27:08.346Z,12.20
2023-04-08T09:29:39.653Z,8.90
2023-04-08T09:32:08.615Z,12.00
2023-04-08T09:34:37.647Z,12.70
2023-04-08T09:37:07.419Z,11.70
2023-04-08T09:39:36.563Z,12.40
2023-04-08T09:42:14.176Z,12.60
2023-04-08T09:44:47.964Z,12.40
2023-04-08T09:47:27.142Z,12.50
2023-04-08T09:50:04.031Z,12.60
2023-04-08T09:52:41.046Z,12.80
2023-04-08T09:55:15.420Z,12.50
2023-04-08T09:57:53.747Z,12.70
2023-04-08T10:00:26.368Z,12.50
2023-04-08T10:03:17.922Z,12.40
2023-04-08T10:05:48.790Z,12.70
2023-04-08T10:08:17.922Z,12.50
2023-04-08T10:10:48.038Z,12.70
2023-04-08T10:13:19.026Z,12.40
2023-04-08T10:15:49.071Z,12.40
2023-04-08T10:18:37.843Z,11.90
2023-04-08T10:21:06.598Z,10.70
2023-04-08T10:24:01.111Z,12.00
2023-04-08T10:26:38.502Z,10.20
2023-04-08T10:29:36.603Z,11.40
2023-04-08T10:32:05.555Z,12.20
2023-04-08T10:34:34.159Z,12.50
2023-04-08T10:37:06.574Z,11.20
2023-04-08T10:39:36.916Z,11.30
2023-04-08T10:42:10.985Z,11.30
2023-04-08T10:44:47.536Z,12.20
2023-04-08T10:47:16.186Z,12.40
2023-04-08T10:49:44.704Z,10.70
2023-04-08T10:52:15.040Z,12.30
2023-04-08T10:54:49.819Z,12.40
2023-04-08T10:57:25.966Z,12.00
2023-04-08T10:59:56.393Z,12.50
2023-04-08T11:02:34.062Z,11.00
2023-04-08T11:05:02.702Z,11.70
2023-04-08T11:07:31.417Z,12.20
2023-04-08T11:10:05.184Z,11.60
2023-04-08T11:12:34.064Z,12.20
2023-04-08T11:15:05.105Z,12.20
2023-04-08T11:17:36.448Z,12.10
2023-04-08T11:20:06.542Z,12.00
2023-04-08T11:22:35.909Z,12.30
2023-04-08T11:25:07.212Z,12.20
2023-04-08T11:27:36.267Z,12.40
2023-04-08T11:30:09.303Z,11.90
2023-04-08T11:32:41.119Z,12.20
2023-04-08T11:35:10.285Z,12.00
2023-04-08T11:37:40.445Z,11.50
2023-04-08T11:40:11.739Z,12.00
2023-04-08T11:42:41.221Z,12.20
2023-04-08T11:45:16.619Z,11.40
2023-04-08T11:47:47.600Z,12.10
2023-04-08T11:50:24.991Z,11.80
2023-04-08T11:52:55.477Z,12.00
2023-04-08T11:55:27.012Z,11.30
2023-04-08T11:57:56.966Z,11.40
2023-04-08T12:00:28.132Z,12.10
2023-04-08T12:02:57.038Z,10.40
2023-04-08T12:05:25.788Z,12.20
2023-04-08T12:07:54.380Z,11.70
2023-04-08T12:10:25.232Z,11.40
2023-04-08T12:12:54.158Z,12.30
2023-04-08T12:15:22.777Z,10.90
2023-04-08T12:17:52.747Z,11.90
2023-04-08T12:20:21.394Z,11.80
2023-04-08T12:22:49.985Z,12.20
2023-04-08T12:25:18.721Z,11.80
2023-04-08T12:27:47.406Z,12.60
2023-04-08T12:30:16.626Z,11.40
2023-04-08T12:32:46.115Z,11.80
2023-04-08T12:35:16.430Z,12.10
2023-04-08T12:37:45.752Z,12.40
2023-04-08T12:40:16.004Z,12.30
2023-04-08T12:42:44.892Z,12.30
2023-04-08T12:45:13.538Z,12.30
2023-04-08T12:47:42.614Z,10.30
2023-04-08T12:50:12.088Z,12.20
2023-04-08T12:52:42.517Z,10.60
2023-04-08T12:55:12.130Z,12.50
2023-04-08T12:57:42.004Z,11.20
2023-04-08T13:00:14.275Z,12.70
2023-04-08T13:02:44.729Z,11.90
2023-04-08T13:05:14.153Z,12.90
2023-04-08T13:07:50.034Z,12.60
2023-04-08T13:10:21.549Z,12.50
2023-04-08T13:12:50.959Z,12.00
2023-04-08T13:15:19.632Z,12.20
2023-04-08T13:17:49.293Z,9.50
2023-04-08T13:20:18.482Z,11.10
2023-04-08T13:22:48.672Z,11.40
2023-04-08T13:25:17.229Z,11.30
2023-04-08T13:27:45.894Z,12.20
2023-04-08T13:30:15.678Z,12.30
2023-04-08T13:32:44.429Z,12.10
2023-04-08T13:35:12.981Z,12.00
2023-04-08T13:37:42.329Z,11.10
2023-04-08T13:40:13.431Z,11.90
2023-04-08T13:42:42.188Z,11.50
2023-04-08T13:45:11.734Z,11.40
2023-04-08T13:47:40.302Z,11.20
2023-04-08T13:50:10.907Z,11.10
2023-04-08T13:52:39.867Z,8.50
2023-04-08T13:55:09.451Z,10.90
2023-04-08T13:57:39.692Z,11.00
2023-04-08T14:00:10.789Z,11.20
2023-04-08T14:02:41.673Z,11.00
2023-04-08T14:05:11.379Z,11.00
2023-04-08T14:07:42.993Z,11.10
2023-04-08T14:10:14.830Z,9.80
2023-04-08T14:12:46.707Z,10.90
2023-04-08T14:15:15.319Z,10.80
2023-04-08T14:17:44.109Z,10.00
2023-04-08T14:20:12.934Z,10.80
2023-04-08T14:22:42.219Z,10.50
2023-04-08T14:25:12.349Z,10.60
2023-04-08T14:27:54.745Z,10.70
2023-04-08T14:30:27.664Z,10.80
2023-04-08T14:32:56.706Z,10.70
2023-04-08T14:35:25.222Z,10.90
2023-04-08T14:37:53.779Z,10.60
2023-04-08T14:40:22.563Z,10.10
2023-04-08T14:42:51.797Z,10.50
2023-04-08T14:45:20.928Z,8.70
2023-04-08T14:47:50.797Z,8.70
2023-04-08T14:50:19.660Z,10.70
2023-04-08T14:52:49.123Z,10.50
2023-04-08T14:55:18.194Z,10.70
2023-04-08T14:57:46.687Z,9.40
2023-04-08T15:00:16.165Z,11.20
2023-04-08T15:02:44.872Z,9.50
2023-04-08T15:05:15.034Z,10.60
2023-04-08T15:07:44.280Z,9.60
2023-04-08T15:10:13.437Z,10.20
2023-04-08T15:12:42.526Z,11.10
2023-04-08T15:15:11.876Z,11.00
2023-04-08T15:17:42.591Z,10.70
2023-04-08T15:20:13.803Z,11.20
2023-04-08T15:22:43.761Z,11.60
2023-04-08T15:25:12.413Z,10.70
2023-04-08T15:27:42.717Z,11.40
2023-04-08T15:30:12.589Z,11.60
2023-04-08T15:32:42.582Z,11.50
2023-04-08T15:35:12.250Z,11.50
2023-04-08T15:37:40.946Z,11.10
2023-04-08T15:40:12.047Z,11.40
2023-04-08T15:42:40.497Z,11.40
2023-04-08T15:45:10.733Z,11.30
2023-04-08T15:47:39.272Z,11.50
2023-04-08T15:50:09.900Z,11.50
2023-04-08T15:52:38.815Z,11.20
2023-04-08T15:55:10.767Z,11.30
2023-04-08T15:57:39.502Z,8.70
2023-04-08T16:00:14.887Z,11.10
2023-04-08T16:02:46.700Z,9.50
2023-04-08T16:05:15.812Z,9.30
2023-04-08T16:07:45.180Z,11.40
2023-04-08T16:10:15.708Z,11.10
2023-04-08T16:12:44.369Z,10.10
2023-04-08T16:15:13.146Z,10.90
2023-04-08T16:17:41.787Z,9.80
2023-04-08T16:20:12.877Z,11.20
2023-04-08T16:22:41.454Z,10.40
2023-04-08T16:25:11.101Z,11.00
2023-04-08T16:27:41.195Z,11.00
2023-04-08T16:30:11.408Z,11.20
2023-04-08T16:32:40.645Z,11.10
2023-04-08T16:35:10.787Z,10.80
2023-04-08T16:37:39.410Z,11.30
2023-04-08T16:40:10.190Z,11.00
2023-04-08T16:42:40.753Z,10.90
2023-04-08T16:45:11.235Z,10.70
2023-04-08T16:47:42.017Z,11.00
2023-04-08T16:50:11.876Z,11.10
2023-04-08T16:52:41.068Z,11.00
2023-04-08T16:55:14.057Z,11.10
2023-04-08T16:57:45.031Z,11.00
2023-04-08T17:00:16.887Z,11.00
2023-04-08T17:02:47.520Z,10.80
2023-04-08T17:05:16.710Z,11.00
2023-04-08T17:07:45.656Z,10.80
2023-04-08T17:10:14.718Z,10.30
2023-04-08T17:12:44.956Z,8.70
2023-04-08T17:15:14.303Z,11.10
2023-04-08T17:17:42.942Z,11.10
2023-04-08T17:20:13.238Z,11.10
2023-04-08T17:22:42.036Z,9.80
2023-04-08T17:25:11.992Z,11.20
2023-04-08T17:27:40.700Z,11.10
2023-04-08T17:30:12.261Z,11.20
2023-04-08T17:32:40.878Z,10.70
2023-04-08T17:35:10.801Z,11.10
2023-04-08T17:37:39.451Z,9.80
2023-04-08T17:40:10.066Z,11.20
2023-04-08T17:42:38.847Z,11.10
2023-04-08T17:45:11.208Z,11.10
2023-04-08T17:47:40.464Z,11.10
2023-04-08T17:50:12.219Z,11.20
2023-04-08T17:52:44.373Z,11.00
2023-04-08T17:55:13.054Z,11.00
2023-04-08T17:57:50.758Z,10.60
2023-04-08T18:00:20.760Z,10.90
2023-04-08T18:02:50.303Z,10.00
2023-04-08T18:05:20.401Z,9.60
2023-04-08T18:07:49.678Z,11.00
2023-04-08T18:10:18.590Z,9.20
2023-04-08T18:12:48.968Z,10.70
2023-04-08T18:15:19.286Z,10.90
2023-04-08T18:17:47.996Z,10.70
2023-04-08T18:20:16.766Z,11.00
2023-04-08T18:22:45.993Z,10.90
2023-04-08T18:25:14.543Z,8.50
2023-04-08T18:27:43.031Z,10.80
2023-04-08T18:30:12.308Z,10.80
2023-04-08T18:32:42.361Z,10.90
2023-04-08T18:35:11.342Z,10.30
2023-04-08T18:37:39.825Z,10.90
2023-04-08T18:40:10.164Z,10.90
2023-04-08T18:42:38.667Z,10.90
2023-04-08T18:45:08.356Z,10.70
2023-04-08T18:47:37.085Z,10.60
2023-04-08T18:50:08.285Z,10.80
2023-04-08T18:52:37.601Z,10.80
2023-04-08T18:55:08.069Z,10.80
2023-04-08T18:57:36.513Z,10.80
2023-04-08T19:00:05.574Z,10.70
2023-04-08T19:02:34.248Z,10.70
2023-04-08T19:05:02.885Z,10.80
2023-04-08T19:07:32.784Z,10.80
2023-04-08T19:10:01.313Z,10.80
2023-04-08T19:12:30.037Z,10.80
2023-04-08T19:14:59.549Z,10.60
2023-04-08T19:17:28.190Z,10.60
2023-04-08T19:19:56.907Z,10.70
2023-04-08T19:22:26.151Z,10.90
2023-04-08T19:24:56.697Z,10.80
2023-04-08T19:27:25.368Z,10.70
2023-04-08T19:29:53.794Z,9.70
2023-04-08T19:32:22.313Z,10.70
2023-04-08T19:34:50.842Z,9.70
2023-04-08T19:37:19.467Z,8.40
2023-04-08T19:39:47.983Z,10.50
2023-04-08T19:42:18.582Z,10.40
2023-04-08T19:44:47.484Z,10.10
2023-04-08T19:47:17.066Z,10.20
2023-04-08T19:49:45.909Z,10.00
2023-04-08T19:52:14.427Z,10.10
2023-04-08T19:54:43.675Z,10.10
2023-04-08T19:57:12.475Z,10.00
2023-04-08T19:59:42.514Z,10.00
2023-04-08T20:02:11.118Z,10.00
2023-04-08T20:04:39.815Z,7.70
2023-04-08T20:07:08.386Z,9.10
2023-04-08T20:09:36.970Z,7.70
2023-04-08T20:12:06.389Z,9.90
2023-04-08T20:14:36.728Z,9.80
2023-04-08T20:17:06.723Z,8.80
2023-04-08T20:19:35.550Z,9.90
2023-04-08T20:22:04.008Z,9.80
2023-04-08T20:24:32.608Z,9.80
2023-04-08T20:27:01.565Z,9.40
2023-04-08T20:29:30.074Z,9.90
2023-04-08T20:31:58.752Z,9.80
2023-04-08T20:34:28.663Z,9.50
2023-04-08T20:36:57.397Z,8.80
2023-04-08T20:39:30.011Z,9.40
2023-04-08T20:41:59.510Z,8.80
2023-04-08T20:44:28.656Z,9.40
2023-04-08T20:46:58.070Z,9.60
2023-04-08T20:49:28.113Z,9.40
2023-04-08T20:51:56.721Z,9.30
2023-04-08T20:54:26.042Z,9.40
2023-04-08T20:56:54.618Z,9.50
2023-04-08T20:59:23.356Z,9.60
2023-04-08T21:01:53.948Z,9.10
2023-04-08T21:04:24.551Z,9.50
2023-04-08T21:06:54.563Z,9.40
2023-04-08T21:09:23.146Z,9.30
2023-04-08T21:11:51.737Z,9.40
2023-04-08T21:14:20.287Z,9.30
2023-04-08T21:16:48.992Z,9.20
2023-04-08T21:19:17.700Z,9.50
2023-04-08T21:21:47.335Z,9.50
2023-04-08T21:24:17.602Z,9.60
2023-04-08T21:26:46.075Z,9.00
2023-04-08T21:29:14.597Z,7.80
2023-04-08T21:31:43.194Z,9.60
2023-04-08T21:34:11.764Z,9.50
2023-04-08T21:36:42.029Z,9.70
2023-04-08T21:39:10.791Z,9.60
2023-04-08T21:41:40.800Z,9.60
2023-04-08T21:44:10.244Z,9.40
2023-04-08T21:46:38.890Z,8.20
2023-04-08T21:49:07.338Z,9.70
2023-04-08T21:51:35.974Z,9.30
2023-04-08T21:54:04.553Z,9.50
2023-04-08T21:56:33.027Z,9.40
2023-04-08T21:59:03.226Z,8.50
2023-04-08T22:01:32.009Z,9.50
2023-04-08T22:04:00.818Z,9.60
2023-04-08T22:06:32.175Z,9.80
2023-04-08T22:09:01.368Z,9.60
2023-04-08T22:11:30.312Z,9.40
2023-04-08T22:13:58.928Z,9.30
2023-04-08T22:16:28.867Z,9.50
2023-04-08T22:18:57.552Z,9.50
2023-04-08T22:21:26.573Z,9.60
2023-04-08T22:23:56.014Z,9.60
2023-04-08T22:26:24.609Z,9.60
2023-04-08T22:28:53.327Z,9.60
2023-04-08T22:31:22.257Z,8.60
2023-04-08T22:33:52.321Z,9.40
2023-04-08T22:36:20.898Z,9.50
2023-04-08T22:38:49.745Z,9.40
2023-04-08T22:41:20.024Z,9.50
2023-04-08T22:43:51.492Z,7.50
2023-04-08T22:46:20.358Z,8.60
2023-04-08T22:48:50.219Z,9.40
2023-04-08T22:51:20.936Z,9.40
2023-04-08T22:53:49.493Z,9.50
2023-04-08T22:56:18.319Z,9.60
2023-04-08T22:58:47.347Z,9.60
2023-04-08T23:01:18.199Z,7.60
2023-04-08T23:03:47.025Z,8.20
2023-04-08T23:06:16.002Z,9.40
2023-04-08T23:08:46.225Z,9.40
2023-04-08T23:11:14.667Z,9.40
2023-04-08T23:13:43.269Z,9.50
2023-04-08T23:16:11.762Z,9.50
2023-04-08T23:18:40.364Z,9.70
2023-04-08T23:21:08.936Z,9.60
2023-04-08T23:23:37.493Z,9.60
2023-04-08T23:26:07.416Z,9.40
2023-04-08T23:28:36.149Z,9.40
2023-04-08T23:31:06.696Z,9.50
2023-04-08T23:33:35.303Z,9.30
2023-04-08T23:36:09.142Z,9.40
2023-04-08T23:38:38.159Z,9.40
2023-04-08T23:41:09.036Z,9.50
2023-04-08T23:43:37.747Z,9.40
2023-04-08T23:46:06.528Z,9.30
2023-04-08T23:48:35.005Z,9.40
2023-04-08T23:51:04.218Z,9.40
2023-04-08T23:53:32.688Z,8.90
2023-04-08T23:56:08.120Z,9.30
2023-04-08T23:58:37.457Z,8.40
